createdAt,value
2022-08-30T00:01:58.216Z,101687.03
2022-08-30T00:04:26.376Z,101683.69
2022-08-30T00:06:54.514Z,101689.22
2022-08-30T00:09:22.183Z,101691.16
2022-08-30T00:11:52.101Z,101690.44
2022-08-30T00:14:21.314Z,101689.59
2022-08-30T00:16:50.890Z,101695.13
2022-08-30T00:19:18.933Z,101693.47
2022-08-30T00:21:46.434Z,101701.50
2022-08-30T00:24:14.303Z,101698.53
2022-08-30T00:26:42.022Z,101691.56
2022-08-30T00:29:09.627Z,101699.47
2022-08-30T00:31:39.250Z,101700.59
2022-08-30T00:34:07.363Z,101701.78
2022-08-30T00:36:34.913Z,101699.25
2022-08-30T00:39:03.088Z,101702.88
2022-08-30T00:41:30.787Z,101704.78
2022-08-30T00:43:59.401Z,101697.97
2022-08-30T00:46:28.574Z,101703.25
2022-08-30T00:48:58.444Z,101705.16
2022-08-30T00:51:26.371Z,101701.69
2022-08-30T00:53:57.795Z,101698.22
2022-08-30T00:56:27.348Z,101694.75
2022-08-30T00:58:57.995Z,101694.75
2022-08-30T01:01:26.344Z,101697.50
2022-08-30T01:03:54.745Z,101701.94
2022-08-30T01:06:23.664Z,101702.78
2022-08-30T01:08:51.164Z,101709.97
2022-08-30T01:11:23.290Z,101712.63
2022-08-30T01:13:52.964Z,101714.53
2022-08-30T01:16:21.761Z,101721.75
2022-08-30T01:18:50.762Z,101709.50
2022-08-30T01:21:27.919Z,101713.25
2022-08-30T01:24:01.861Z,101716.00
2022-08-30T01:26:31.201Z,101720.56
2022-08-30T01:29:03.368Z,101709.41
2022-08-30T01:31:31.281Z,101711.22
2022-08-30T01:33:59.094Z,101717.44
2022-08-30T01:36:26.673Z,101723.56
2022-08-30T01:38:56.820Z,101715.78
2022-08-30T01:41:28.004Z,101714.09
2022-08-30T01:43:58.814Z,101712.44
2022-08-30T01:46:28.926Z,101715.91
2022-08-30T01:48:58.491Z,101714.34
2022-08-30T01:51:28.336Z,101716.97
2022-08-30T01:53:56.437Z,101709.13
2022-08-30T01:56:35.913Z,101706.63
2022-08-30T01:59:06.280Z,101718.28
2022-08-30T02:01:37.012Z,101709.66
2022-08-30T02:04:05.894Z,101715.03
2022-08-30T02:06:33.721Z,101710.84
2022-08-30T02:09:01.862Z,101711.81
2022-08-30T02:11:30.875Z,101700.53
2022-08-30T02:13:58.334Z,101702.34
2022-08-30T02:16:26.907Z,101704.97
2022-08-30T02:19:04.316Z,101701.50
2022-08-30T02:22:23.207Z,101696.22
2022-08-30T02:26:01.252Z,101700.53
2022-08-30T02:29:00.483Z,101704.03
2022-08-30T02:35:03.432Z,101692.84
2022-08-30T02:37:46.875Z,101702.56
2022-08-30T02:41:05.310Z,101695.88
2022-08-30T02:43:34.679Z,101701.16
2022-08-30T02:46:04.702Z,101701.28
2022-08-30T02:48:43.221Z,101710.25
2022-08-30T02:52:27.669Z,101690.38
2022-08-30T02:55:02.065Z,101703.66
2022-08-30T02:58:22.067Z,101696.00
2022-08-30T03:01:03.403Z,101692.50
2022-08-30T03:03:37.236Z,101699.81
2022-08-30T03:06:31.542Z,101699.22
2022-08-30T03:09:52.085Z,101691.31
2022-08-30T03:13:15.662Z,101715.16
2022-08-30T03:16:13.499Z,101708.22
2022-08-30T03:19:00.660Z,101704.84
2022-08-30T03:21:33.728Z,101704.72
2022-08-30T03:24:05.107Z,101708.34
2022-08-30T03:26:34.086Z,101711.22
2022-08-30T03:29:02.901Z,101709.53
2022-08-30T03:31:37.699Z,101713.13
2022-08-30T03:34:40.503Z,101706.16
2022-08-30T03:38:07.987Z,101714.19
2022-08-30T03:40:58.719Z,101709.03
2022-08-30T03:47:28.410Z,101715.53
2022-08-30T03:50:42.848Z,101720.91
2022-08-30T03:56:34.713Z,101727.25
2022-08-30T03:59:47.678Z,101724.84
2022-08-30T04:02:44.069Z,101728.44
2022-08-30T04:05:32.257Z,101726.75
2022-08-30T04:11:58.336Z,101733.84
2022-08-30T04:14:40.430Z,101731.19
2022-08-30T04:17:54.344Z,101737.31
2022-08-30T04:21:05.034Z,101735.72
2022-08-30T04:23:44.745Z,101737.53
2022-08-30T04:26:34.940Z,101738.63
2022-08-30T04:29:12.357Z,101743.91
2022-08-30T04:35:37.185Z,101752.53
2022-08-30T04:38:50.626Z,101753.34
2022-08-30T04:42:10.327Z,101753.22
2022-08-30T04:45:41.097Z,101755.88
2022-08-30T04:48:32.024Z,101756.69
2022-08-30T04:51:05.008Z,101757.44
2022-08-30T04:53:33.728Z,101757.44
2022-08-30T04:56:40.271Z,101755.75
2022-08-30T04:59:52.699Z,101754.94
2022-08-30T05:02:47.664Z,101754.81
2022-08-30T05:05:47.478Z,101754.66
2022-08-30T05:08:47.505Z,101749.38
2022-08-30T05:11:23.267Z,101751.09
2022-08-30T05:14:28.369Z,101758.16
2022-08-30T05:17:29.462Z,101749.16
2022-08-30T05:20:51.948Z,101757.94
2022-08-30T05:23:49.386Z,101766.66
2022-08-30T05:27:06.715Z,101776.28
2022-08-30T05:30:29.604Z,101780.56
2022-08-30T05:33:39.283Z,101775.19
2022-08-30T05:46:54.889Z,101773.06
2022-08-30T05:49:48.586Z,101775.47
2022-08-30T05:53:04.260Z,101780.50
2022-08-30T05:55:43.319Z,101783.63
2022-08-30T05:58:25.609Z,101781.56
2022-08-30T06:01:04.257Z,101777.75
2022-08-30T06:04:03.843Z,101794.06
2022-08-30T06:07:00.346Z,101789.88
2022-08-30T06:09:53.716Z,101785.06
2022-08-30T06:12:39.017Z,101791.31
2022-08-30T06:15:38.286Z,101779.34
2022-08-30T06:18:18.537Z,101783.75
2022-08-30T06:21:12.178Z,101790.97
2022-08-30T06:24:14.691Z,101792.00
2022-08-30T06:26:52.786Z,101786.25
2022-08-30T06:29:38.440Z,101791.88
2022-08-30T06:32:35.060Z,101785.53
2022-08-30T06:35:16.217Z,101790.53
2022-08-30T06:38:09.537Z,101794.50
2022-08-30T06:41:24.643Z,101795.53
2022-08-30T06:48:23.088Z,101806.03
2022-08-30T06:51:05.553Z,101787.16
2022-08-30T06:53:54.550Z,101806.19
2022-08-30T07:00:28.182Z,101795.75
2022-08-30T07:07:03.419Z,101804.81
2022-08-30T07:10:04.522Z,101810.66
2022-08-30T07:16:51.147Z,101821.31
2022-08-30T07:19:47.317Z,101813.00
2022-08-30T07:22:43.003Z,101811.69
2022-08-30T07:28:45.841Z,101814.13
2022-08-30T07:35:30.090Z,101820.22
2022-08-30T07:46:06.996Z,101826.56
2022-08-30T07:49:11.219Z,101835.34
2022-08-30T07:55:22.721Z,101835.09
2022-08-30T08:01:45.822Z,101839.72
2022-08-30T08:04:48.673Z,101832.78
2022-08-30T08:07:50.833Z,101831.94
2022-08-30T08:10:46.070Z,101840.13
2022-08-30T08:13:53.429Z,101840.25
2022-08-30T08:17:02.267Z,101837.28
2022-08-30T08:20:29.006Z,101836.81
2022-08-30T08:23:53.238Z,101847.19
2022-08-30T08:27:05.696Z,101850.66
2022-08-30T08:30:06.334Z,101849.50
2022-08-30T08:33:15.516Z,101843.28
2022-08-30T08:39:35.160Z,101855.16
2022-08-30T08:42:17.548Z,101857.41
2022-08-30T08:44:55.841Z,101857.84
2022-08-30T08:47:33.603Z,101861.50
2022-08-30T08:50:12.032Z,101865.41
2022-08-30T08:53:10.845Z,101859.81
2022-08-30T08:55:49.663Z,101858.94
2022-08-30T08:59:28.501Z,101858.94
2022-08-30T09:02:11.254Z,101849.59
2022-08-30T09:04:45.325Z,101865.22
2022-08-30T09:07:24.822Z,101855.41
2022-08-30T09:09:57.791Z,101863.66
2022-08-30T09:12:28.616Z,101865.34
2022-08-30T09:15:03.672Z,101861.91
2022-08-30T09:17:51.797Z,101857.91
2022-08-30T09:20:29.310Z,101860.19
2022-08-30T09:22:59.649Z,101863.25
2022-08-30T09:25:32.861Z,101863.41
2022-08-30T09:28:19.235Z,101866.91
2022-08-30T09:31:12.417Z,101865.38
2022-08-30T09:33:41.477Z,101866.69
2022-08-30T09:36:22.419Z,101866.66
2022-08-30T09:42:33.529Z,101868.03
2022-08-30T09:45:13.796Z,101865.03
2022-08-30T09:47:47.810Z,101865.34
2022-08-30T09:50:24.207Z,101859.66
2022-08-30T09:53:09.771Z,101861.28
2022-08-30T09:55:51.610Z,101858.69
2022-08-30T09:58:32.731Z,101862.41
2022-08-30T10:01:11.278Z,101867.13
2022-08-30T10:03:46.065Z,101868.38
2022-08-30T10:06:29.913Z,101865.78
2022-08-30T10:09:08.777Z,101871.19
2022-08-30T10:11:48.696Z,101866.75
2022-08-30T10:14:36.468Z,101857.28
2022-08-30T10:17:13.537Z,101860.69
2022-08-30T10:20:13.149Z,101857.59
2022-08-30T10:22:58.746Z,101870.03
2022-08-30T10:25:34.725Z,101859.38
2022-08-30T10:28:14.710Z,101860.03
2022-08-30T10:30:49.177Z,101856.66
2022-08-30T10:33:25.545Z,101862.56
2022-08-30T10:35:59.262Z,101858.31
2022-08-30T10:38:32.643Z,101854.50
2022-08-30T10:41:23.494Z,101846.44
2022-08-30T10:44:06.249Z,101848.03
2022-08-30T10:46:40.731Z,101850.38
2022-08-30T10:49:19.527Z,101844.19
2022-08-30T10:51:58.776Z,101847.19
2022-08-30T10:54:41.852Z,101849.03
2022-08-30T10:57:11.059Z,101845.41
2022-08-30T10:59:45.282Z,101851.94
2022-08-30T11:03:12.970Z,101848.00
2022-08-30T11:06:07.101Z,101856.03
2022-08-30T11:09:03.821Z,101848.72
2022-08-30T11:11:52.587Z,101851.69
2022-08-30T11:14:25.369Z,101854.88
2022-08-30T11:16:55.930Z,101857.53
2022-08-30T11:19:27.753Z,101848.44
2022-08-30T11:22:21.434Z,101845.69
2022-08-30T11:25:10.533Z,101847.34
2022-08-30T11:27:52.759Z,101848.53
2022-08-30T11:30:51.975Z,101858.41
2022-08-30T11:33:46.086Z,101849.84
2022-08-30T11:37:10.276Z,101843.47
2022-08-30T11:40:14.226Z,101839.59
2022-08-30T11:42:48.309Z,101837.47
2022-08-30T11:45:56.167Z,101822.22
2022-08-30T11:48:55.731Z,101818.63
2022-08-30T11:52:26.571Z,101815.31
2022-08-30T11:55:14.055Z,101804.53
2022-08-30T11:57:56.187Z,101804.53
2022-08-30T12:00:39.682Z,101808.03
2022-08-30T12:03:28.508Z,101817.56
2022-08-30T12:06:07.918Z,101808.41
2022-08-30T12:09:05.377Z,101805.88
2022-08-30T12:12:02.241Z,101810.47
2022-08-30T12:14:54.450Z,101804.94
2022-08-30T12:17:48.273Z,101803.06
2022-08-30T12:20:26.175Z,101804.38
2022-08-30T12:22:58.562Z,101798.94
2022-08-30T12:25:36.950Z,101790.75
2022-08-30T12:28:14.469Z,101796.91
2022-08-30T12:31:07.332Z,101789.34
2022-08-30T12:33:47.478Z,101784.75
2022-08-30T12:36:31.291Z,101784.84
2022-08-30T12:39:14.027Z,101777.22
2022-08-30T12:41:57.262Z,101772.84
2022-08-30T12:44:29.602Z,101783.41
2022-08-30T12:47:06.247Z,101772.75
2022-08-30T12:49:40.872Z,101772.72
2022-08-30T12:52:25.750Z,101773.13
2022-08-30T12:55:17.762Z,101773.38
2022-08-30T12:58:01.751Z,101775.97
2022-08-30T13:00:35.941Z,101781.09
2022-08-30T13:03:29.072Z,101771.44
2022-08-30T13:06:00.892Z,101766.59
2022-08-30T13:08:36.824Z,101765.44
2022-08-30T13:11:08.668Z,101764.44
2022-08-30T13:14:05.295Z,101767.59
2022-08-30T13:16:44.569Z,101763.06
2022-08-30T13:19:32.466Z,101754.44
2022-08-30T13:22:05.029Z,101753.13
2022-08-30T13:24:36.127Z,101754.91
2022-08-30T13:27:11.756Z,101756.91
2022-08-30T13:29:44.527Z,101755.41
2022-08-30T13:32:17.119Z,101754.97
2022-08-30T13:34:51.456Z,101745.72
2022-08-30T13:40:17.869Z,101738.59
2022-08-30T13:42:47.749Z,101741.63
2022-08-30T13:48:32.634Z,101734.16
2022-08-30T13:51:04.524Z,101734.69
2022-08-30T13:59:52.742Z,101722.97
2022-08-30T14:02:21.499Z,101734.69
2022-08-30T14:04:49.404Z,101731.56
2022-08-30T14:07:20.346Z,101728.97
2022-08-30T14:09:48.533Z,101733.53
2022-08-30T14:12:52.512Z,101727.13
2022-08-30T14:15:08.314Z,101743.97
2022-08-30T14:17:36.461Z,101740.00
2022-08-30T14:20:04.384Z,101732.75
2022-08-30T14:22:33.262Z,101739.31
2022-08-30T14:25:01.557Z,101741.69
2022-08-30T14:27:29.341Z,101744.22
2022-08-30T14:29:57.605Z,101745.94
2022-08-30T14:32:26.100Z,101752.59
2022-08-30T14:34:54.247Z,101747.28
2022-08-30T14:37:21.898Z,101744.50
2022-08-30T14:39:51.707Z,101745.53
2022-08-30T14:42:19.948Z,101752.03
2022-08-30T14:47:37.696Z,101748.69
2022-08-30T14:50:06.868Z,101749.38
2022-08-30T14:52:35.065Z,101754.59
2022-08-30T14:55:09.073Z,101758.94
2022-08-30T14:57:38.311Z,101753.28
2022-08-30T15:00:08.739Z,101757.13
2022-08-30T15:02:36.594Z,101753.81
2022-08-30T15:05:04.536Z,101748.47
2022-08-30T15:07:36.328Z,101744.66
2022-08-30T15:10:06.974Z,101743.81
2022-08-30T15:12:35.060Z,101740.47
2022-08-30T15:15:04.773Z,101746.28
2022-08-30T15:17:33.434Z,101746.28
2022-08-30T15:20:01.167Z,101749.13
2022-08-30T15:22:28.905Z,101748.97
2022-08-30T15:24:56.477Z,101747.47
2022-08-30T15:27:25.740Z,101747.78
2022-08-30T15:29:53.328Z,101743.78
2022-08-30T15:32:20.881Z,101734.28
2022-08-30T15:34:53.065Z,101744.31
2022-08-30T15:37:23.963Z,101742.94
2022-08-30T15:39:53.221Z,101749.13
2022-08-30T15:42:21.457Z,101738.97
2022-08-30T15:44:55.756Z,101738.47
2022-08-30T15:47:24.488Z,101743.44
2022-08-30T15:49:56.568Z,101737.75
2022-08-30T15:52:24.987Z,101734.59
2022-08-30T15:54:53.354Z,101730.94
2022-08-30T15:57:22.565Z,101740.19
2022-08-30T15:59:50.249Z,101729.34
2022-08-30T16:02:19.374Z,101734.31
2022-08-30T16:04:46.993Z,101733.31
2022-08-30T16:07:17.208Z,101732.97
2022-08-30T16:09:45.695Z,101731.59
2022-08-30T16:12:22.361Z,101731.09
2022-08-30T16:14:51.644Z,101733.72
2022-08-30T16:17:20.501Z,101727.22
2022-08-30T16:19:48.067Z,101727.69
2022-08-30T16:22:22.163Z,101726.31
2022-08-30T16:24:50.370Z,101731.81
2022-08-30T16:27:17.981Z,101723.97
2022-08-30T16:29:49.052Z,101726.13
2022-08-30T16:32:18.109Z,101725.63
2022-08-30T16:34:47.214Z,101729.25
2022-08-30T16:37:14.879Z,101726.94
2022-08-30T16:39:46.415Z,101719.22
2022-08-30T16:42:14.997Z,101719.41
2022-08-30T16:44:49.680Z,101720.00
2022-08-30T16:47:18.006Z,101718.66
2022-08-30T16:49:47.249Z,101718.97
2022-08-30T16:52:16.222Z,101716.63
2022-08-30T16:54:45.899Z,101715.25
2022-08-30T16:57:20.757Z,101717.25
2022-08-30T16:59:49.568Z,101716.59
2022-08-30T17:02:20.146Z,101716.59
2022-08-30T17:04:52.938Z,101712.41
2022-08-30T17:07:21.557Z,101714.38
2022-08-30T17:09:50.423Z,101716.69
2022-08-30T17:12:19.202Z,101712.50
2022-08-30T17:14:47.443Z,101718.13
2022-08-30T17:17:15.423Z,101716.63
2022-08-30T17:19:44.077Z,101728.53
2022-08-30T17:22:13.967Z,101724.69
2022-08-30T17:24:42.214Z,101723.88
2022-08-30T17:27:11.249Z,101732.16
2022-08-30T17:29:39.241Z,101733.06
2022-08-30T17:32:07.217Z,101729.88
2022-08-30T17:34:36.570Z,101729.34
2022-08-30T17:37:04.933Z,101731.75
2022-08-30T17:39:33.901Z,101741.53
2022-08-30T17:42:01.573Z,101744.06
2022-08-30T17:44:29.578Z,101753.16
2022-08-30T17:46:59.565Z,101753.31
2022-08-30T17:49:28.795Z,101756.28
2022-08-30T17:51:57.935Z,101756.72
2022-08-30T17:54:26.735Z,101750.88
2022-08-30T17:56:56.889Z,101755.81
2022-08-30T17:59:26.576Z,101761.41
2022-08-30T18:01:57.437Z,101757.22
2022-08-30T18:04:26.752Z,101763.69
2022-08-30T18:06:54.776Z,101765.81
2022-08-30T18:09:22.980Z,101764.28
2022-08-30T18:11:50.960Z,101770.75
2022-08-30T18:14:19.934Z,101775.34
2022-08-30T18:16:50.140Z,101769.66
2022-08-30T18:19:22.287Z,101785.19
2022-08-30T18:21:52.322Z,101787.31
2022-08-30T18:24:20.102Z,101787.63
2022-08-30T18:26:47.727Z,101792.09
2022-08-30T18:29:22.488Z,101796.00
2022-08-30T18:31:58.070Z,101802.31
2022-08-30T18:34:25.671Z,101797.31
2022-08-30T18:36:54.362Z,101805.41
2022-08-30T18:39:22.794Z,101802.06
2022-08-30T18:41:50.950Z,101816.47
2022-08-30T18:44:28.290Z,101808.09
2022-08-30T18:47:00.723Z,101813.69
2022-08-30T18:49:32.607Z,101819.16
2022-08-30T18:52:00.555Z,101817.66
2022-08-30T18:54:28.438Z,101812.72
2022-08-30T18:56:56.359Z,101820.00
2022-08-30T18:59:24.027Z,101813.97
2022-08-30T19:02:05.521Z,101810.78
2022-08-30T19:04:35.449Z,101811.06
2022-08-30T19:07:05.039Z,101810.53
2022-08-30T19:09:32.904Z,101811.81
2022-08-30T19:12:00.455Z,101816.53
2022-08-30T19:14:28.554Z,101806.53
2022-08-30T19:16:57.146Z,101806.13
2022-08-30T19:19:26.577Z,101807.38
2022-08-30T19:21:54.153Z,101806.00
2022-08-30T19:24:22.504Z,101805.41
2022-08-30T19:26:52.038Z,101799.41
2022-08-30T19:29:19.739Z,101805.13
2022-08-30T19:31:48.360Z,101806.28
2022-08-30T19:34:16.064Z,101802.94
2022-08-30T19:36:45.080Z,101806.69
2022-08-30T19:39:13.980Z,101809.63
2022-08-30T19:41:45.625Z,101800.28
2022-08-30T19:44:13.328Z,101805.00
2022-08-30T19:46:41.848Z,101809.91
2022-08-30T19:49:11.407Z,101799.69
2022-08-30T19:51:46.968Z,101800.00
2022-08-30T19:54:16.353Z,101803.03
2022-08-30T19:56:45.852Z,101803.44
2022-08-30T19:59:15.763Z,101800.38
2022-08-30T20:01:45.836Z,101799.97
2022-08-30T20:04:14.430Z,101804.84
2022-08-30T20:06:42.427Z,101806.91
2022-08-30T20:09:10.732Z,101812.19
2022-08-30T20:11:42.138Z,101823.94
2022-08-30T20:14:13.669Z,101810.94
2022-08-30T20:16:41.702Z,101804.41
2022-08-30T20:19:11.738Z,101809.97
2022-08-30T20:21:39.712Z,101811.06
2022-08-30T20:24:09.729Z,101814.13
2022-08-30T20:26:39.697Z,101815.38
2022-08-30T20:29:08.275Z,101821.75
2022-08-30T20:31:36.633Z,101823.59
2022-08-30T20:34:05.325Z,101830.13
2022-08-30T20:36:33.717Z,101827.75
2022-08-30T20:39:09.226Z,101819.38
2022-08-30T20:41:45.193Z,101822.56
2022-08-30T20:44:17.691Z,101825.84
2022-08-30T20:46:46.538Z,101829.75
2022-08-30T20:49:25.645Z,101824.03
2022-08-30T20:51:54.338Z,101833.28
2022-08-30T20:54:22.781Z,101831.16
2022-08-30T20:56:51.805Z,101827.09
2022-08-30T20:59:19.575Z,101829.56
2022-08-30T21:01:48.766Z,101823.72
2022-08-30T21:04:17.563Z,101842.63
2022-08-30T21:06:45.131Z,101834.94
2022-08-30T21:09:12.700Z,101834.22
2022-08-30T21:11:44.487Z,101836.31
2022-08-30T21:14:13.931Z,101840.28
2022-08-30T21:16:41.864Z,101840.09
2022-08-30T21:19:09.449Z,101840.59
2022-08-30T21:21:37.079Z,101842.78
2022-08-30T21:24:09.879Z,101843.03
2022-08-30T21:26:37.898Z,101845.09
2022-08-30T21:29:06.590Z,101836.72
2022-08-30T21:31:38.647Z,101841.44
2022-08-30T21:34:07.049Z,101840.00
2022-08-30T21:36:45.957Z,101841.91
2022-08-30T21:39:16.777Z,101840.50
2022-08-30T21:41:44.995Z,101847.97
2022-08-30T21:44:15.106Z,101846.63
2022-08-30T21:46:44.758Z,101849.41
2022-08-30T21:49:14.698Z,101856.88
2022-08-30T21:51:45.000Z,101855.44
2022-08-30T21:54:14.474Z,101849.31
2022-08-30T21:56:44.062Z,101853.06
2022-08-30T21:59:12.473Z,101844.78
2022-08-30T22:01:44.097Z,101850.31
2022-08-30T22:04:13.030Z,101844.31
2022-08-30T22:06:42.540Z,101848.03
2022-08-30T22:09:14.014Z,101847.31
2022-08-30T22:11:43.036Z,101858.13
2022-08-30T22:14:14.500Z,101860.19
2022-08-30T22:16:45.519Z,101868.34
2022-08-30T22:19:13.310Z,101872.06
2022-08-30T22:21:42.836Z,101864.25
2022-08-30T22:24:11.702Z,101862.34
2022-08-30T22:26:39.992Z,101867.88
2022-08-30T22:29:09.198Z,101856.84
2022-08-30T22:31:37.844Z,101849.16
2022-08-30T22:34:11.360Z,101861.53
2022-08-30T22:36:39.690Z,101863.44
2022-08-30T22:39:09.040Z,101863.69
2022-08-30T22:41:37.691Z,101862.00
2022-08-30T22:44:06.416Z,101861.28
2022-08-30T22:46:35.207Z,101863.19
2022-08-30T22:49:03.061Z,101866.91
2022-08-30T22:51:32.110Z,101872.31
2022-08-30T22:54:00.834Z,101867.88
2022-08-30T22:56:29.373Z,101868.63
2022-08-30T22:58:57.080Z,101863.56
2022-08-30T23:01:27.937Z,101865.22
2022-08-30T23:03:55.927Z,101870.50
2022-08-30T23:06:23.879Z,101880.25
2022-08-30T23:08:52.698Z,101871.59
2022-08-30T23:11:22.397Z,101880.59
2022-08-30T23:13:50.092Z,101881.69
2022-08-30T23:16:18.190Z,101875.78
2022-08-30T23:18:47.029Z,101878.69
2022-08-30T23:21:16.807Z,101870.09
2022-08-30T23:24:02.134Z,101867.84
2022-08-30T23:26:48.718Z,101867.22
2022-08-30T23:29:34.919Z,101875.50
2022-08-30T23:32:20.236Z,101881.25
2022-08-30T23:35:05.719Z,101879.78
2022-08-30T23:37:52.919Z,101877.50
2022-08-30T23:40:39.185Z,101885.88
2022-08-30T23:43:26.187Z,101880.94
2022-08-30T23:46:11.734Z,101880.22
2022-08-30T23:49:04.612Z,101875.28
2022-08-30T23:51:49.649Z,101878.03
2022-08-30T23:54:34.987Z,101887.97
2022-08-30T23:57:19.936Z,101875.84
